Time;durP1;ratioP1;P1;durP2;ratioP2;P2;SDS_P1;SDS_P2;PMS_P1;PMS_P2;Temp;Humidity;BMP_temperature;BMP_pressure;BME280_temperature;BME280_humidity;BME280_pressure;Samples;Min_cycle;Max_cycle;Signal;HPM_P1;HPM_P2
2023/06/04 00:00:22;;;;;;;7.07;3.57;;;;;;;13.84;43.14;101109.61;123327;1102;104396;-76
2023/06/04 00:03:14;;;;;;;10.60;3.90;;;;;;;13.84;43.15;101108.73;123301;1102;104351;-76
2023/06/04 00:05:45;;;;;;;16.80;4.10;;;;;;;13.82;43.48;101103.41;123287;1102;104201;-75
2023/06/04 00:08:16;;;;;;;9.20;3.57;;;;;;;13.84;43.76;101106.09;123371;1102;104326;-76
2023/06/04 00:10:47;;;;;;;11.20;3.70;;;;;;;13.80;43.71;101112.98;123267;1102;104383;-75
2023/06/04 00:13:19;;;;;;;12.93;3.47;;;;;;;13.77;43.83;101117.27;123362;1102;104245;-75
2023/06/04 00:15:50;;;;;;;7.97;3.40;;;;;;;13.70;43.95;101118.83;123183;1102;104255;-76
2023/06/04 00:18:21;;;;;;;9.30;3.87;;;;;;;13.64;43.62;101108.08;123318;1102;104329;-75
2023/06/04 00:20:52;;;;;;;14.40;4.35;;;;;;;13.60;43.97;101117.64;123283;1102;104362;-76
2023/06/04 00:23:23;;;;;;;9.90;3.80;;;;;;;13.54;44.35;101116.52;123266;1102;104434;-76
2023/06/04 00:25:54;;;;;;;10.90;3.97;;;;;;;13.52;44.34;101115.58;123278;1102;104326;-76
2023/06/04 00:28:26;;;;;;;15.10;3.83;;;;;;;13.48;44.46;101122.50;123313;1102;104322;-75
2023/06/04 00:30:57;;;;;;;10.75;3.85;;;;;;;13.51;44.30;101121.69;123260;1102;104319;-76
2023/06/04 00:33:28;;;;;;;11.17;3.80;;;;;;;13.48;44.42;101120.75;123322;1100;104690;-76
2023/06/04 00:35:59;;;;;;;11.03;4.13;;;;;;;13.44;44.60;101126.75;123252;1102;104342;-76
2023/06/04 00:38:30;;;;;;;10.40;3.80;;;;;;;13.45;44.61;101120.64;123262;1102;104328;-76
2023/06/04 00:41:02;;;;;;;10.25;3.90;;;;;;;13.46;44.86;101127.72;123237;1102;104247;-76
2023/06/04 00:43:33;;;;;;;9.20;3.70;;;;;;;13.40;44.99;101122.23;123265;1100;104172;-75
2023/06/04 00:46:04;;;;;;;7.57;3.60;;;;;;;13.28;45.07;101119.14;123244;1102;104361;-76
2023/06/04 00:48:37;;;;;;;10.20;4.10;;;;;;;13.16;45.04;101122.23;123184;1100;105617;-76
2023/06/04 00:51:09;;;;;;;7.93;4.03;;;;;;;13.04;45.10;101132.34;123374;1102;104731;-77
2023/06/04 00:53:40;;;;;;;11.73;4.20;;;;;;;12.98;45.33;101135.67;123273;1102;104245;-76
2023/06/04 00:56:11;;;;;;;8.73;4.13;;;;;;;12.93;45.31;101129.31;123195;1102;104274;-75
2023/06/04 00:58:44;;;;;;;8.43;3.93;;;;;;;12.91;45.09;101125.74;123338;1102;104370;-76
2023/06/04 01:01:27;;;;;;;9.73;4.27;;;;;;;12.91;45.42;101131.02;123245;1102;104417;-76
2023/06/04 01:04:02;;;;;;;10.00;3.97;;;;;;;12.92;45.58;101127.55;123418;1102;104219;-76
2023/06/04 01:06:39;;;;;;;11.17;4.43;;;;;;;12.93;45.92;101124.97;123296;1102;104341;-76
2023/06/04 01:09:11;;;;;;;8.87;4.03;;;;;;;12.94;45.79;101137.27;123288;1102;105656;-76
2023/06/04 01:11:42;;;;;;;8.90;3.60;;;;;;;12.95;46.03;101132.92;123321;1101;104268;-75
2023/06/04 01:14:13;;;;;;;8.33;3.80;;;;;;;12.89;45.99;101132.70;123187;1102;104384;-76
2023/06/04 01:16:48;;;;;;;9.73;4.00;;;;;;;12.80;46.13;101133.25;123218;1102;104271;-75
2023/06/04 01:19:59;;;;;;;12.27;4.23;;;;;;;12.71;46.07;101136.43;123178;1102;104406;-76
2023/06/04 01:22:39;;;;;;;12.93;4.77;;;;;;;12.57;46.36;101129.76;123268;1101;104318;-76
2023/06/04 01:25:19;;;;;;;10.90;4.57;;;;;;;12.47;46.53;101125.89;123245;1102;104696;-77
2023/06/04 01:27:56;;;;;;;10.30;4.23;;;;;;;12.47;46.68;101132.91;123155;1100;104501;-76
2023/06/04 01:30:30;;;;;;;9.73;4.23;;;;;;;12.46;46.38;101133.73;123320;1102;104271;-75
2023/06/04 01:33:02;;;;;;;10.72;4.47;;;;;;;12.41;46.71;101134.44;123347;1100;104345;-76
2023/06/04 01:35:33;;;;;;;13.87;4.33;;;;;;;12.43;46.79;101137.12;123405;1100;104318;-76
2023/06/04 01:38:05;;;;;;;10.97;4.30;;;;;;;12.44;46.91;101133.67;123372;1102;104306;-76
2023/06/04 01:40:37;;;;;;;10.37;4.60;;;;;;;12.42;46.72;101135.36;123172;1102;104392;-76
2023/06/04 01:43:08;;;;;;;12.73;5.00;;;;;;;12.38;46.89;101134.32;123249;1102;104249;-76
2023/06/04 01:45:39;;;;;;;14.20;5.47;;;;;;;12.25;47.08;101141.67;123277;1102;104316;-76
2023/06/04 01:48:11;;;;;;;12.15;5.20;;;;;;;12.08;47.45;101138.41;123357;1100;104281;-76
2023/06/04 01:50:42;;;;;;;15.60;5.20;;;;;;;11.97;47.76;101140.61;123252;1102;105601;-76
2023/06/04 01:53:13;;;;;;;12.53;4.90;;;;;;;11.88;47.46;101136.72;123255;1102;104435;-77
2023/06/04 01:55:44;;;;;;;12.93;5.67;;;;;;;11.87;47.65;101145.47;123304;1102;104325;-76
2023/06/04 01:58:17;;;;;;;11.63;4.93;;;;;;;11.79;48.07;101152.12;123394;1102;104332;-77
2023/06/04 02:00:49;;;;;;;14.47;5.60;;;;;;;11.63;48.30;101157.59;123293;1102;104280;-76
2023/06/04 02:03:21;;;;;;;12.43;4.80;;;;;;;11.51;48.41;101158.88;123313;1101;104268;-75
2023/06/04 02:05:53;;;;;;;12.07;5.10;;;;;;;11.43;48.57;101154.12;123234;1102;104408;-76
2023/06/04 02:08:25;;;;;;;12.90;4.80;;;;;;;11.42;48.87;101165.45;123295;1102;104333;-76
2023/06/04 02:10:56;;;;;;;12.83;4.93;;;;;;;11.40;49.08;101151.36;123271;1102;104725;-76
2023/06/04 02:13:27;;;;;;;11.00;4.87;;;;;;;11.33;49.10;101158.98;123265;1102;104732;-75
2023/06/04 02:15:58;;;;;;;13.20;4.60;;;;;;;11.28;49.41;101168.41;123298;1102;104427;-76
2023/06/04 02:18:30;;;;;;;13.90;5.40;;;;;;;11.20;49.79;101166.26;123227;1100;104421;-76
2023/06/04 02:21:01;;;;;;;10.07;4.40;;;;;;;11.13;50.00;101165.98;123229;1102;104265;-76
2023/06/04 02:23:32;;;;;;;13.63;4.83;;;;;;;11.05;49.73;101171.75;123197;1102;104386;-75
2023/06/04 02:26:03;;;;;;;12.47;5.13;;;;;;;10.97;50.03;101168.78;123239;1102;104755;-75
2023/06/04 02:28:34;;;;;;;12.35;4.05;;;;;;;10.90;50.80;101170.21;123300;1102;104310;-76
2023/06/04 02:31:06;;;;;;;9.50;4.67;;;;;;;10.80;51.18;101168.02;123093;1102;104255;-75
2023/06/04 02:33:38;;;;;;;12.70;4.83;;;;;;;10.73;51.19;101172.07;123231;1100;104302;-75
2023/06/04 02:36:10;;;;;;;14.13;5.03;;;;;;;10.70;51.04;101173.67;123186;1102;104353;-76
2023/06/04 02:38:42;;;;;;;14.13;4.43;;;;;;;10.74;51.48;101175.61;123207;1102;104393;-75
2023/06/04 02:41:13;;;;;;;13.67;4.57;;;;;;;10.74;52.48;101171.25;123101;1102;104341;-75
2023/06/04 02:43:45;;;;;;;12.60;4.13;;;;;;;10.71;51.88;101172.84;123207;1102;104376;-76
2023/06/04 02:46:16;;;;;;;9.60;3.90;;;;;;;10.70;52.26;101169.30;123174;1102;104223;-75
2023/06/04 02:48:47;;;;;;;12.70;4.10;;;;;;;10.71;52.40;101173.73;123246;1102;104262;-76
2023/06/04 02:51:19;;;;;;;11.70;4.20;;;;;;;10.70;52.59;101169.30;123259;1102;104245;-76
2023/06/04 02:53:50;;;;;;;8.87;3.83;;;;;;;10.73;52.72;101176.44;123263;1102;104336;-76
2023/06/04 02:56:22;;;;;;;12.67;4.17;;;;;;;10.72;53.04;101175.55;123082;1102;104429;-75
2023/06/04 02:58:55;;;;;;;11.93;4.10;;;;;;;10.71;53.37;101176.36;123275;1100;104358;-76
2023/06/04 03:01:27;;;;;;;11.73;4.35;;;;;;;10.68;53.49;101177.95;123426;1102;104258;-76
2023/06/04 03:04:03;;;;;;;9.83;4.30;;;;;;;10.65;53.21;101173.45;123378;1102;104351;-75
2023/06/04 03:06:37;;;;;;;12.63;5.10;;;;;;;10.64;54.40;101176.90;123400;1102;104369;-76
2023/06/04 03:09:09;;;;;;;9.13;4.00;;;;;;;10.64;53.73;101178.63;123235;1102;104434;-76
2023/06/04 03:11:40;;;;;;;11.60;4.40;;;;;;;10.62;53.56;101178.56;123240;1102;104284;-76
2023/06/04 03:14:13;;;;;;;8.80;3.77;;;;;;;10.65;53.81;101183.95;123188;1102;104271;-75
2023/06/04 03:16:44;;;;;;;12.63;4.10;;;;;;;10.68;54.17;101185.83;123300;1102;104386;-76
2023/06/04 03:19:16;;;;;;;12.17;3.83;;;;;;;10.71;54.64;101188.60;123212;1102;104344;-76
2023/06/04 03:21:52;;;;;;;9.05;3.85;;;;;;;10.73;54.29;101190.45;123205;1102;104485;-76
2023/06/04 03:24:23;;;;;;;13.33;4.13;;;;;;;10.77;54.16;101195.02;123187;1102;104290;-75
2023/06/04 03:26:54;;;;;;;6.97;3.53;;;;;;;10.81;54.51;101190.80;123198;1102;104399;-76
2023/06/04 03:29:26;;;;;;;10.47;3.93;;;;;;;10.85;53.98;101198.00;123365;1102;104272;-75
2023/06/04 03:31:57;;;;;;;11.57;4.07;;;;;;;10.88;54.48;101192.89;123234;1101;104254;-75
2023/06/04 03:34:32;;;;;;;7.57;3.60;;;;;;;10.95;54.82;101194.97;123227;1102;104364;-75
2023/06/04 03:37:04;;;;;;;9.47;4.10;;;;;;;11.04;54.77;101198.84;123206;1102;104312;-76
2023/06/04 03:39:36;;;;;;;8.60;3.47;;;;;;;11.11;54.66;101191.30;123221;1100;104277;-75
2023/06/04 03:42:10;;;;;;;14.85;5.05;;;;;;;11.19;54.67;101195.97;123188;1102;104269;-76
2023/06/04 03:44:41;;;;;;;10.80;4.00;;;;;;;11.24;54.42;101192.73;123133;1102;104321;-76
2023/06/04 03:47:12;;;;;;;9.33;3.80;;;;;;;11.26;54.74;101188.43;123152;1102;104415;-76
2023/06/04 03:49:45;;;;;;;10.43;3.73;;;;;;;11.32;54.51;101198.33;123204;1102;104294;-75
2023/06/04 03:52:16;;;;;;;11.00;4.10;;;;;;;11.38;55.11;101195.97;123107;1102;104322;-76
2023/06/04 03:54:47;;;;;;;8.27;3.70;;;;;;;11.44;54.85;101203.23;123124;1102;104267;-76
2023/06/04 03:57:19;;;;;;;12.30;3.70;;;;;;;11.47;54.92;101198.99;123211;1102;104354;-76
2023/06/04 03:59:50;;;;;;;10.73;3.60;;;;;;;11.56;54.50;101208.09;123253;1100;104220;-76
2023/06/04 04:02:22;;;;;;;8.70;3.45;;;;;;;11.63;54.96;101197.02;123357;1102;105601;-75
2023/06/04 04:04:54;;;;;;;7.30;3.37;;;;;;;11.69;54.76;101199.91;123221;1102;104268;-76
2023/06/04 04:07:25;;;;;;;6.93;3.30;;;;;;;11.79;54.78;101203.82;123266;1102;104814;-77
2023/06/04 04:09:57;;;;;;;7.50;3.40;;;;;;;11.86;54.68;101206.77;123305;1102;104299;-75
2023/06/04 04:12:28;;;;;;;8.43;3.37;;;;;;;11.98;54.79;101213.40;123259;1102;104476;-75
2023/06/04 04:14:59;;;;;;;12.47;3.47;;;;;;;12.04;54.75;101211.94;123095;1102;104319;-76
2023/06/04 04:17:31;;;;;;;7.70;3.20;;;;;;;12.16;54.48;101211.52;123165;1102;104357;-75
2023/06/04 04:20:05;;;;;;;8.57;3.20;;;;;;;12.27;54.47;101208.44;123204;1102;104347;-76
2023/06/04 04:22:40;;;;;;;10.57;3.10;;;;;;;12.37;54.55;101213.22;123270;1102;104371;-76
2023/06/04 04:25:12;;;;;;;7.10;3.25;;;;;;;12.52;54.32;101215.56;123177;1102;107051;-76
2023/06/04 04:27:44;;;;;;;9.90;3.10;;;;;;;12.62;54.17;101217.73;123212;1102;104332;-76
2023/06/04 04:30:17;;;;;;;8.27;3.50;;;;;;;12.70;54.11;101220.63;123158;1102;104321;-76
2023/06/04 04:32:49;;;;;;;12.07;4.00;;;;;;;12.76;54.52;101215.60;123195;1102;104272;-75
2023/06/04 04:35:23;;;;;;;7.40;3.27;;;;;;;12.89;53.57;101225.78;123232;1102;104320;-76
2023/06/04 04:37:55;;;;;;;7.93;3.07;;;;;;;13.01;54.26;101219.16;123194;1100;104280;-76
2023/06/04 04:40:27;;;;;;;8.20;3.33;;;;;;;13.13;53.65;101222.25;123263;1102;104280;-75
2023/06/04 04:42:59;;;;;;;5.90;3.00;;;;;;;13.23;53.75;101226.11;123222;1102;104361;-77
2023/06/04 04:45:31;;;;;;;9.87;3.17;;;;;;;13.35;53.67;101223.08;123158;1102;104268;-75
2023/06/04 04:48:03;;;;;;;5.27;2.47;;;;;;;13.46;53.43;101224.34;123154;1102;104378;-75
2023/06/04 04:50:35;;;;;;;4.87;2.43;;;;;;;13.58;52.77;101223.89;123358;1102;104223;-75
2023/06/04 04:53:07;;;;;;;4.15;2.50;;;;;;;13.70;52.44;101215.49;123098;1102;104182;-73
2023/06/04 04:55:39;;;;;;;5.30;2.57;;;;;;;13.79;51.99;101210.53;123092;1102;111575;-74
2023/06/04 04:58:10;;;;;;;6.00;2.70;;;;;;;13.91;51.90;101207.42;123327;1102;104316;-75
2023/06/04 05:00:42;;;;;;;7.33;2.37;;;;;;;14.03;52.02;101208.72;123429;1102;104686;-76
2023/06/04 05:03:13;;;;;;;4.30;2.60;;;;;;;14.15;51.33;101204.70;123286;1101;104514;-76
2023/06/04 05:05:45;;;;;;;4.20;2.40;;;;;;;14.26;51.33;101210.30;123214;1102;104331;-76
2023/06/04 05:08:17;;;;;;;3.37;2.20;;;;;;;14.36;51.46;101209.76;123129;1102;104354;-76
2023/06/04 05:10:48;;;;;;;6.00;2.37;;;;;;;14.44;50.91;101210.88;123256;1101;104342;-79
2023/06/04 05:13:20;;;;;;;3.70;2.20;;;;;;;14.51;50.58;101209.36;123399;1101;104353;-76
2023/06/04 05:15:57;;;;;;;7.27;2.60;;;;;;;14.57;50.64;101217.47;123174;1102;104428;-77
2023/06/04 05:18:30;;;;;;;5.80;2.20;;;;;;;14.66;50.73;101209.86;123305;1102;104277;-75
2023/06/04 05:21:04;;;;;;;5.53;2.43;;;;;;;14.77;49.67;101217.19;123118;1102;104261;-76
2023/06/04 05:23:39;;;;;;;7.47;1.80;;;;;;;14.86;48.73;101213.06;123407;1101;104342;-75
2023/06/04 05:26:11;;;;;;;6.20;2.03;;;;;;;14.96;49.17;101216.91;123270;1101;104321;-76
2023/06/04 05:28:43;;;;;;;2.73;1.77;;;;;;;15.03;48.94;101210.92;123173;1101;104399;-76
2023/06/04 05:31:15;;;;;;;4.17;1.90;;;;;;;15.16;49.87;101216.56;123410;1102;104197;-76
2023/06/04 05:33:47;;;;;;;4.63;2.20;;;;;;;15.27;49.42;101220.42;123223;1102;104245;-75
2023/06/04 05:36:20;;;;;;;9.28;2.90;;;;;;;15.33;49.01;101225.85;123166;1102;104350;-74
2023/06/04 05:38:56;;;;;;;8.10;2.23;;;;;;;15.41;47.87;101224.34;123155;1102;104469;-75
2023/06/04 05:41:29;;;;;;;3.87;1.90;;;;;;;15.47;48.43;101220.95;123374;1102;104257;-76
2023/06/04 05:44:01;;;;;;;4.00;2.30;;;;;;;15.55;47.92;101222.07;123187;1102;104354;-75
2023/06/04 05:46:33;;;;;;;3.85;1.90;;;;;;;15.59;47.38;101212.45;123147;1102;104377;-74
2023/06/04 05:49:04;;;;;;;8.17;1.80;;;;;;;15.66;46.95;101214.42;123316;1102;104299;-76
2023/06/04 05:51:36;;;;;;;7.25;1.95;;;;;;;15.78;47.17;101213.86;123283;1102;104325;-76
2023/06/04 05:54:07;;;;;;;3.23;1.70;;;;;;;15.85;46.90;101217.55;123276;1101;104689;-75
2023/06/04 05:56:40;;;;;;;3.33;1.90;;;;;;;15.89;46.68;101215.02;123167;1102;104334;-75
2023/06/04 05:59:12;;;;;;;4.33;1.73;;;;;;;15.96;45.52;101213.45;123201;1102;104386;-76
2023/06/04 06:01:44;;;;;;;4.17;1.77;;;;;;;16.09;45.94;101210.23;123276;1102;104357;-76
2023/06/04 06:04:15;;;;;;;6.53;2.10;;;;;;;16.20;46.13;101212.25;123221;1102;104376;-74
2023/06/04 06:06:48;;;;;;;3.40;1.65;;;;;;;16.26;44.95;101207.98;123228;1101;104405;-73
2023/06/04 06:09:20;;;;;;;3.30;1.80;;;;;;;16.35;45.94;101210.86;123174;1100;104248;-75
2023/06/04 06:11:52;;;;;;;6.30;1.97;;;;;;;16.46;44.39;101215.52;123371;1102;104242;-76
2023/06/04 06:14:23;;;;;;;6.13;2.07;;;;;;;16.56;44.78;101222.80;123168;1102;104367;-75
2023/06/04 06:16:55;;;;;;;6.53;1.70;;;;;;;16.65;44.32;101225.66;123130;1102;104303;-74
2023/06/04 06:19:26;;;;;;;5.20;1.63;;;;;;;16.71;44.40;101227.56;123111;1102;104277;-74
2023/06/04 06:21:59;;;;;;;7.17;1.70;;;;;;;16.77;44.03;101221.51;123292;1102;104290;-73
2023/06/04 06:24:31;;;;;;;3.50;1.70;;;;;;;16.83;42.92;101219.87;123161;1102;104698;-75
2023/06/04 06:27:03;;;;;;;2.63;1.47;;;;;;;16.86;42.82;101224.36;123179;1102;104230;-76
2023/06/04 06:29:34;;;;;;;5.60;1.80;;;;;;;16.91;42.30;101221.81;123249;1102;104331;-75
2023/06/04 06:32:06;;;;;;;4.60;1.75;;;;;;;16.96;42.78;101225.48;123297;1102;104242;-76
2023/06/04 06:34:38;;;;;;;4.33;1.57;;;;;;;17.03;42.67;101219.42;123276;1103;104286;-76
2023/06/04 06:37:10;;;;;;;2.73;1.67;;;;;;;17.14;42.59;101212.60;123231;1102;104268;-76
2023/06/04 06:39:41;;;;;;;1.30;1.13;;;;;;;17.12;40.88;101216.95;123183;1102;104315;-75
2023/06/04 06:42:12;;;;;;;7.07;2.10;;;;;;;17.16;39.84;101225.89;123225;1102;104342;-76
2023/06/04 06:44:48;;;;;;;4.10;1.60;;;;;;;17.24;41.08;101214.55;123155;1101;104399;-74
2023/06/04 06:47:19;;;;;;;2.17;1.50;;;;;;;17.36;40.36;101219.22;123234;1102;104355;-73
2023/06/04 06:49:50;;;;;;;4.20;1.80;;;;;;;17.49;40.53;101219.45;123162;1102;104270;-74
2023/06/04 06:52:21;;;;;;;2.83;1.43;;;;;;;17.63;39.55;101211.75;123310;1102;104348;-74
2023/06/04 06:54:53;;;;;;;5.77;1.73;;;;;;;17.76;40.12;101219.05;123206;1102;104315;-73
2023/06/04 06:57:25;;;;;;;3.83;1.83;;;;;;;17.77;40.05;101220.84;123180;1102;104351;-72
2023/06/04 06:59:56;;;;;;;6.10;1.77;;;;;;;17.89;40.17;101226.40;123278;1100;104275;-73
2023/06/04 07:02:28;;;;;;;4.87;1.60;;;;;;;18.07;39.73;101222.26;123288;1102;104322;-72
2023/06/04 07:04:59;;;;;;;5.13;1.73;;;;;;;18.21;37.62;101220.71;123269;1102;104389;-73
2023/06/04 07:07:31;;;;;;;4.97;1.93;;;;;;;18.29;38.50;101211.12;123144;1100;104271;-73
2023/06/04 07:10:03;;;;;;;4.15;1.55;;;;;;;18.40;38.26;101207.72;123258;1100;104239;-71
2023/06/04 07:12:34;;;;;;;2.77;1.57;;;;;;;18.52;38.05;101218.53;123223;1102;104226;-72
2023/06/04 07:15:08;;;;;;;3.47;1.90;;;;;;;18.71;37.69;101213.47;123165;1101;104383;-73
2023/06/04 07:17:39;;;;;;;4.40;1.80;;;;;;;18.87;37.73;101223.48;123249;1102;104275;-75
2023/06/04 07:20:11;;;;;;;3.70;1.83;;;;;;;19.10;38.31;101222.87;123185;1102;104348;-73
2023/06/04 07:22:42;;;;;;;5.53;1.70;;;;;;;19.22;37.68;101226.56;123201;1102;104393;-74
2023/06/04 07:25:14;;;;;;;4.17;1.97;;;;;;;19.38;37.80;101226.73;123213;1102;104351;-74
2023/06/04 07:27:45;;;;;;;7.95;1.80;;;;;;;19.56;37.57;101231.38;123213;1102;104364;-74
2023/06/04 07:30:17;;;;;;;3.00;1.73;;;;;;;19.86;37.28;101224.59;123391;1100;104249;-72
2023/06/04 07:32:50;;;;;;;4.87;1.87;;;;;;;20.11;37.53;101218.58;123239;1102;104396;-73
2023/06/04 07:35:21;;;;;;;2.72;1.60;;;;;;;20.23;35.90;101216.91;123191;1102;104357;-73
2023/06/04 07:37:52;;;;;;;5.13;1.60;;;;;;;20.40;35.82;101220.58;123180;1102;104280;-71
2023/06/04 07:40:24;;;;;;;5.17;1.60;;;;;;;20.56;36.16;101220.67;123230;1102;104740;-73
2023/06/04 07:42:55;;;;;;;1.50;1.23;;;;;;;20.65;34.74;101223.44;123146;1100;104280;-72
2023/06/04 07:45:28;;;;;;;4.23;1.53;;;;;;;20.57;35.62;101211.77;123197;1102;104314;-72
2023/06/04 07:47:59;;;;;;;2.33;1.47;;;;;;;20.73;34.51;101213.69;123096;1102;104341;-72
2023/06/04 07:50:30;;;;;;;4.73;1.50;;;;;;;20.75;34.77;101217.24;123313;1102;104673;-72
2023/06/04 07:53:02;;;;;;;3.50;1.80;;;;;;;20.74;34.69;101215.48;123272;1102;104284;-73
2023/06/04 07:55:33;;;;;;;8.07;1.77;;;;;;;20.77;33.80;101210.16;123254;1102;104335;-75
2023/06/04 07:58:04;;;;;;;1.50;1.27;;;;;;;20.73;34.07;101212.81;123175;1102;104270;-74
2023/06/04 08:00:36;;;;;;;5.17;1.63;;;;;;;20.95;32.65;101217.34;123280;1100;104505;-75
2023/06/04 08:03:07;;;;;;;2.00;1.65;;;;;;;20.98;33.39;101212.02;123209;1100;104251;-73
2023/06/04 08:05:39;;;;;;;3.50;1.70;;;;;;;21.08;32.62;101212.05;123161;1101;104242;-74
2023/06/04 08:08:10;;;;;;;3.97;1.70;;;;;;;21.19;31.61;101208.55;123204;1102;104332;-74
2023/06/04 08:10:43;;;;;;;5.77;1.50;;;;;;;21.18;33.00;101208.55;123195;1100;104278;-73
2023/06/04 08:13:15;;;;;;;1.70;1.50;;;;;;;21.33;31.98;101205.02;123188;1100;104270;-73
2023/06/04 08:15:46;;;;;;;1.47;1.13;;;;;;;21.56;32.34;101212.23;123180;1102;104650;-76
2023/06/04 08:18:18;;;;;;;3.20;1.55;;;;;;;21.69;32.39;101203.33;123181;1102;104242;-77
2023/06/04 08:20:49;;;;;;;5.97;1.90;;;;;;;21.96;31.61;101196.23;123157;1102;104368;-73
2023/06/04 08:23:20;;;;;;;3.30;1.50;;;;;;;22.14;30.56;101197.99;123061;1102;104342;-74
2023/06/04 08:25:52;;;;;;;6.37;1.63;;;;;;;22.13;31.07;101194.44;123112;1102;104414;-72
2023/06/04 08:28:23;;;;;;;3.93;1.37;;;;;;;22.16;30.83;101196.20;123265;1101;104316;-73
2023/06/04 08:30:54;;;;;;;2.15;1.20;;;;;;;22.11;30.88;101193.56;123156;1102;104290;-72
2023/06/04 08:33:26;;;;;;;1.67;1.37;;;;;;;22.12;30.89;101197.99;123195;1100;104242;-74
2023/06/04 08:35:57;;;;;;;3.53;1.57;;;;;;;22.16;31.06;101199.78;123179;1101;104214;-74
2023/06/04 08:38:28;;;;;;;3.03;1.70;;;;;;;22.21;29.76;101197.11;123131;1101;104252;-75
2023/06/04 08:41:08;;;;;;;3.97;1.50;;;;;;;22.28;30.46;101197.98;123247;1100;104239;-73
2023/06/04 08:43:43;;;;;;;3.77;1.50;;;;;;;22.41;30.23;101199.78;123200;1102;104268;-74
2023/06/04 08:46:15;;;;;;;7.73;1.43;;;;;;;22.51;30.75;101196.17;123219;1102;104201;-73
2023/06/04 08:48:47;;;;;;;3.77;1.83;;;;;;;22.55;30.10;101189.05;123101;1102;104330;-73
2023/06/04 08:51:19;;;;;;;3.20;1.53;;;;;;;22.67;30.27;101188.11;123113;1102;104412;-75
2023/06/04 08:53:53;;;;;;;1.43;1.20;;;;;;;22.85;30.74;101196.07;123074;1100;104224;-74
2023/06/04 08:56:25;;;;;;;4.20;1.50;;;;;;;22.83;29.63;101188.94;123039;1102;104261;-73
2023/06/04 08:59:02;;;;;;;4.13;1.50;;;;;;;22.64;29.35;101188.12;123034;1100;104274;-72
2023/06/04 09:01:34;;;;;;;5.03;1.70;;;;;;;22.65;29.62;101195.26;123138;1100;104313;-73
2023/06/04 09:04:07;;;;;;;1.57;1.47;;;;;;;22.79;29.18;101182.72;123133;1102;104385;-72
2023/06/04 09:06:40;;;;;;;3.63;1.50;;;;;;;22.50;28.41;101189.06;123203;1101;104252;-71
2023/06/04 09:09:15;;;;;;;4.73;1.60;;;;;;;22.47;28.71;101181.05;123151;1101;104313;-73
2023/06/04 09:11:50;;;;;;;3.10;1.40;;;;;;;22.53;28.54;101173.02;123304;1101;104329;-72
2023/06/04 09:14:22;;;;;;;1.70;1.60;;;;;;;22.48;28.87;101174.79;123159;1102;104336;-72
2023/06/04 09:16:58;;;;;;;2.37;1.53;;;;;;;22.61;29.40;101170.31;123179;1102;104305;-73
2023/06/04 09:19:30;;;;;;;4.17;1.40;;;;;;;22.77;29.30;101171.14;123178;1100;104248;-73
2023/06/04 09:22:02;;;;;;;3.17;1.40;;;;;;;22.97;28.86;101173.73;123264;1101;104354;-72
2023/06/04 09:24:46;;;;;;;2.77;2.00;;;;;;;22.95;28.84;101164.80;123292;1102;104651;-72
2023/06/04 09:27:16;;;;;;;;;;;;;;;22.92;28.02;101165.73;123161;1102;104175;-70
2023/06/04 09:29:55;;;;;;;3.50;1.53;;;;;;;22.86;28.73;101157.73;123150;1100;104460;-72
2023/06/04 09:32:28;;;;;;;3.40;1.70;;;;;;;22.83;27.73;101157.73;123365;1102;104296;-72
2023/06/04 09:35:12;;;;;;;3.65;1.70;;;;;;;22.62;26.33;101161.38;123206;1102;104235;-71
2023/06/04 09:37:52;;;;;;;3.97;1.80;;;;;;;22.47;27.27;101148.97;123250;1102;104277;-70
2023/06/04 09:40:23;;;;;;;3.47;1.80;;;;;;;22.48;27.82;101155.19;123233;1102;104249;-72
2023/06/04 09:42:55;;;;;;;3.83;1.80;;;;;;;22.50;27.11;101151.63;123177;1101;104360;-72
2023/06/04 09:45:35;;;;;;;1.83;1.43;;;;;;;22.50;27.00;101151.63;123162;1102;104261;-73
2023/06/04 09:48:06;;;;;;;4.55;1.80;;;;;;;22.70;27.35;101145.30;123554;1102;104408;-72
2023/06/04 09:50:38;;;;;;;2.53;1.53;;;;;;;22.88;26.48;101138.98;123114;1102;104275;-74
2023/06/04 09:53:17;;;;;;;2.10;1.50;;;;;;;22.98;26.92;101149.64;123119;1100;104277;-73
2023/06/04 09:55:58;;;;;;;2.30;1.70;;;;;;;22.95;27.16;101141.63;123089;1102;104245;-71
2023/06/04 09:58:30;;;;;;;3.05;1.50;;;;;;;22.79;26.50;101145.27;123179;1102;104258;-71
2023/06/04 10:01:03;;;;;;;2.57;1.50;;;;;;;22.66;26.63;101140.84;123159;1101;104278;-71
2023/06/04 10:03:35;;;;;;;1.60;1.50;;;;;;;22.65;26.96;101139.09;123179;1100;104351;-72
2023/06/04 10:06:09;;;;;;;2.55;1.60;;;;;;;22.66;27.12;101140.84;123149;1102;104284;-73
2023/06/04 10:08:43;;;;;;;2.22;1.60;;;;;;;22.86;26.88;101138.09;123093;1102;104246;-73
2023/06/04 10:11:18;;;;;;;3.80;1.87;;;;;;;23.01;26.53;101143.36;123068;1100;104647;-72
2023/06/04 10:13:55;;;;;;;3.83;1.90;;;;;;;23.20;26.76;101137.94;123132;1100;104274;-73
2023/06/04 10:16:30;;;;;;;3.93;2.00;;;;;;;23.11;26.44;101126.39;123164;1102;104380;-72
2023/06/04 10:19:02;;;;;;;5.67;1.67;;;;;;;23.01;26.35;101127.30;123184;1102;104195;-73
2023/06/04 10:21:36;;;;;;;5.27;1.60;;;;;;;22.91;26.75;101129.15;123139;1101;104687;-73
2023/06/04 10:24:08;;;;;;;4.80;1.70;;;;;;;23.10;26.70;101126.41;123208;1102;104230;-72
2023/06/04 10:26:40;;;;;;;2.37;2.07;;;;;;;23.10;26.15;101123.73;123131;1101;104245;-72
2023/06/04 10:29:13;;;;;;;3.00;1.60;;;;;;;23.05;25.79;101122.84;123144;1102;104265;-72
2023/06/04 10:31:46;;;;;;;4.65;1.80;;;;;;;23.12;26.01;101122.83;123253;1101;104361;-73
2023/06/04 10:34:17;;;;;;;4.23;1.67;;;;;;;23.15;26.33;101125.49;123180;1102;104405;-72
2023/06/04 10:36:48;;;;;;;3.20;1.90;;;;;;;23.21;26.42;101118.31;123144;1102;104268;-73
2023/06/04 10:39:29;;;;;;;3.77;2.00;;;;;;;23.28;26.53;101115.58;123136;1100;104220;-73
2023/06/04 10:42:03;;;;;;;5.73;1.90;;;;;;;23.20;25.84;101112.05;123229;1102;104248;-72
2023/06/04 10:44:45;;;;;;;7.87;2.37;;;;;;;23.11;25.93;101117.48;123304;1102;104213;-71
2023/06/04 10:47:23;;;;;;;3.17;1.67;;;;;;;23.07;25.89;101116.56;123123;1100;104239;-73
2023/06/04 10:49:55;;;;;;;1.83;1.50;;;;;;;23.04;25.41;101111.23;123330;1102;104243;-73
2023/06/04 10:52:27;;;;;;;2.00;1.70;;;;;;;23.00;26.11;101111.25;123501;1100;104274;-73
2023/06/04 10:55:06;;;;;;;2.27;1.70;;;;;;;22.89;25.41;101112.22;123234;1102;104341;-72
2023/06/04 10:57:37;;;;;;;2.17;1.63;;;;;;;22.85;25.92;101101.55;123351;1102;104750;-75
2023/06/04 11:00:12;;;;;;;3.67;1.70;;;;;;;22.94;25.86;101101.50;123205;1101;104491;-73
2023/06/04 11:02:55;;;;;;;6.13;2.00;;;;;;;22.91;25.22;101107.74;123234;1102;104357;-72
2023/06/04 11:05:36;;;;;;;4.85;1.70;;;;;;;22.94;25.79;101097.02;123312;1100;104242;-72
2023/06/04 11:08:09;;;;;;;2.17;1.50;;;;;;;22.99;25.31;101102.34;123178;1102;104754;-72
2023/06/04 11:10:42;;;;;;;5.57;1.90;;;;;;;23.04;25.24;101100.52;123243;1100;104351;-74
2023/06/04 11:13:14;;;;;;;3.57;1.90;;;;;;;23.06;25.26;101104.09;123325;1102;104169;-74
2023/06/04 11:15:48;;;;;;;3.00;1.80;;;;;;;23.04;25.46;101102.31;123253;1102;104382;-72
2023/06/04 11:18:20;;;;;;;1.73;1.63;;;;;;;23.02;25.29;101102.33;123193;1102;104238;-73
2023/06/04 11:21:00;;;;;;;4.23;1.90;;;;;;;23.08;25.21;101096.06;123701;1100;104274;-73
2023/06/04 11:23:31;;;;;;;1.93;1.73;;;;;;;23.18;25.46;101099.59;123210;1101;117804;-74
2023/06/04 11:26:02;;;;;;;2.60;1.50;;;;;;;23.24;25.14;101089.72;123271;1102;104395;-72
2023/06/04 11:28:34;;;;;;;3.00;1.90;;;;;;;23.20;25.05;101087.07;123121;1100;104268;-73
2023/06/04 11:31:08;;;;;;;2.40;1.83;;;;;;;23.18;25.05;101087.08;123196;1102;104331;-73